CXA126 ZSJN-ZYHB
Flight info
| Callsign | CXA126 |
|---|---|
| Flight time | N/A |
| Altitude | 33100 |
| Route | BASOV7Y BASOV W4 REPOL V42 GUMED W5 MAKNO W106 UDETI A588 NULRA W206 MAGBI W656 ISLUK W629 LARUN LAR29A |
| Aircraft | B738/M-SDE2E3FGHIRWXY/LB1 |
Departure
| Time | N/A |
|---|---|
| Airport | Jinan Yaoqiang International Airport (ZSJN) |
Arrival
| Time | 2026-04-23 15:06 |
|---|---|
| Airport | Harbin Taiping International Airport (ZYHB) |
| Time | Latitude | Longitude | Altitude | Speed | Heading |
|---|---|---|---|---|---|
| 2026-04-23 14:26 | 43.93470 | 125.88974 | 33033 ft | 445 kts | 13° |
| 2026-04-23 14:26 | 43.96316 | 125.90727 | 33067 ft | 452 kts | 21° |
| 2026-04-23 14:26 | 44.01484 | 125.95910 | 33044 ft | 464 kts | 33° |
| 2026-04-23 14:27 | 44.06536 | 126.01373 | 33040 ft | 452 kts | 22° |
| 2026-04-23 14:27 | 44.12273 | 126.04406 | 33050 ft | 433 kts | 4° |
| 2026-04-23 14:28 | 44.18157 | 126.05654 | 33049 ft | 430 kts | 1° |
| 2026-04-23 14:28 | 44.21128 | 126.06270 | 32640 ft | 436 kts | 2° |
| 2026-04-23 14:28 | 44.24119 | 126.06911 | 32009 ft | 434 kts | 2° |
| 2026-04-23 14:29 | 44.27098 | 126.07569 | 31275 ft | 433 kts | 2° |
| 2026-04-23 14:29 | 44.30081 | 126.08235 | 30520 ft | 434 kts | 3° |
| 2026-04-23 14:29 | 44.33064 | 126.08904 | 29655 ft | 435 kts | 3° |
| 2026-04-23 14:29 | 44.36059 | 126.09574 | 28729 ft | 436 kts | 3° |
| 2026-04-23 14:30 | 44.39050 | 126.10244 | 27808 ft | 436 kts | 4° |
| 2026-04-23 14:30 | 44.42063 | 126.10910 | 26678 ft | 441 kts | 4° |
| 2026-04-23 14:30 | 44.45076 | 126.11576 | 26022 ft | 436 kts | 4° |
| 2026-04-23 14:30 | 44.48058 | 126.12238 | 25343 ft | 432 kts | 4° |
| 2026-04-23 14:31 | 44.51014 | 126.12893 | 24682 ft | 427 kts | 4° |
| 2026-04-23 14:31 | 44.53955 | 126.13530 | 23889 ft | 428 kts | 4° |
| 2026-04-23 14:31 | 44.56890 | 126.14159 | 23128 ft | 426 kts | 4° |
| 2026-04-23 14:31 | 44.59811 | 126.14787 | 22399 ft | 421 kts | 5° |
| 2026-04-23 14:32 | 44.62687 | 126.15417 | 21680 ft | 418 kts | 5° |
| 2026-04-23 14:32 | 44.65547 | 126.16067 | 20994 ft | 414 kts | 5° |
| 2026-04-23 14:32 | 44.68376 | 126.16715 | 20329 ft | 410 kts | 5° |
| 2026-04-23 14:32 | 44.71186 | 126.17356 | 19700 ft | 407 kts | 5° |
| 2026-04-23 14:33 | 44.73978 | 126.17857 | 18993 ft | 404 kts | 1° |
| 2026-04-23 14:33 | 44.76767 | 126.18121 | 18328 ft | 401 kts | 359° |
| 2026-04-23 14:33 | 44.79556 | 126.18316 | 17613 ft | 399 kts | 359° |
| 2026-04-23 14:33 | 44.82311 | 126.18512 | 16949 ft | 395 kts | 360° |
| 2026-04-23 14:34 | 44.85012 | 126.18726 | 16335 ft | 392 kts | 0° |
| 2026-04-23 14:34 | 44.87725 | 126.18960 | 15724 ft | 388 kts | 1° |
| 2026-04-23 14:34 | 44.90412 | 126.19204 | 15112 ft | 385 kts | 1° |
| 2026-04-23 14:34 | 44.93076 | 126.19448 | 14509 ft | 382 kts | 1° |
| 2026-04-23 14:35 | 44.95715 | 126.19690 | 13867 ft | 381 kts | 1° |
| 2026-04-23 14:35 | 44.98367 | 126.19932 | 13157 ft | 380 kts | 1° |
| 2026-04-23 14:35 | 45.00992 | 126.20172 | 12531 ft | 377 kts | 1° |
| 2026-04-23 14:35 | 45.03569 | 126.19928 | 11932 ft | 368 kts | 342° |
| 2026-04-23 14:36 | 45.05828 | 126.18373 | 11390 ft | 359 kts | 321° |
| 2026-04-23 14:36 | 45.07552 | 126.15924 | 11070 ft | 347 kts | 306° |
| 2026-04-23 14:36 | 45.08712 | 126.13015 | 10908 ft | 332 kts | 289° |
| 2026-04-23 14:36 | 45.09398 | 126.09943 | 10779 ft | 323 kts | 285° |
| 2026-04-23 14:37 | 45.09993 | 126.06914 | 10647 ft | 316 kts | 284° |
| 2026-04-23 14:37 | 45.10566 | 126.03951 | 10501 ft | 308 kts | 284° |
| 2026-04-23 14:37 | 45.11128 | 126.01083 | 10366 ft | 297 kts | 284° |
| 2026-04-23 14:37 | 45.11678 | 125.98320 | 10251 ft | 287 kts | 285° |
| 2026-04-23 14:38 | 45.12219 | 125.95637 | 10131 ft | 278 kts | 285° |
| 2026-04-23 14:38 | 45.12734 | 125.93089 | 10020 ft | 270 kts | 285° |
| 2026-04-23 14:38 | 45.13254 | 125.90520 | 9763 ft | 266 kts | 285° |
| 2026-04-23 14:38 | 45.13761 | 125.88012 | 9480 ft | 264 kts | 285° |
| 2026-04-23 14:39 | 45.14537 | 125.85667 | 9179 ft | 264 kts | 306° |
| 2026-04-23 14:39 | 45.15311 | 125.84344 | 9030 ft | 262 kts | 308° |
| 2026-04-23 14:39 | 45.16476 | 125.82371 | 8716 ft | 261 kts | 308° |
| 2026-04-23 14:39 | 45.17647 | 125.80414 | 8454 ft | 260 kts | 314° |
| 2026-04-23 14:40 | 45.19196 | 125.79116 | 8155 ft | 264 kts | 343° |
| 2026-04-23 14:40 | 45.21023 | 125.79056 | 7901 ft | 266 kts | 12° |
| 2026-04-23 14:40 | 45.22688 | 125.80136 | 7767 ft | 262 kts | 33° |
| 2026-04-23 14:40 | 45.24107 | 125.81705 | 7639 ft | 256 kts | 38° |
| 2026-04-23 14:41 | 45.25454 | 125.83303 | 7514 ft | 249 kts | 38° |
| 2026-04-23 14:41 | 45.26765 | 125.84864 | 7373 ft | 244 kts | 39° |
| 2026-04-23 14:41 | 45.28115 | 125.86305 | 7137 ft | 242 kts | 33° |
| 2026-04-23 14:41 | 45.29507 | 125.87654 | 6909 ft | 241 kts | 33° |
| 2026-04-23 14:42 | 45.30894 | 125.89000 | 6672 ft | 241 kts | 33° |
| 2026-04-23 14:42 | 45.32271 | 125.90346 | 6427 ft | 240 kts | 33° |
| 2026-04-23 14:42 | 45.33650 | 125.91701 | 6175 ft | 240 kts | 33° |
| 2026-04-23 14:42 | 45.34989 | 125.93103 | 5935 ft | 240 kts | 38° |
| 2026-04-23 14:43 | 45.36278 | 125.94598 | 5697 ft | 238 kts | 39° |
| 2026-04-23 14:43 | 45.37539 | 125.96079 | 5536 ft | 233 kts | 39° |
| 2026-04-23 14:43 | 45.38796 | 125.97554 | 5282 ft | 234 kts | 39° |
| 2026-04-23 14:43 | 45.40035 | 125.99001 | 5057 ft | 233 kts | 39° |
| 2026-04-23 14:44 | 45.41288 | 126.00459 | 4832 ft | 232 kts | 39° |
| 2026-04-23 14:44 | 45.42532 | 126.01905 | 4585 ft | 231 kts | 39° |
| 2026-04-23 14:44 | 45.43774 | 126.03347 | 4351 ft | 229 kts | 40° |
| 2026-04-23 14:44 | 45.45002 | 126.04775 | 4141 ft | 226 kts | 40° |
| 2026-04-23 14:45 | 45.46219 | 126.06191 | 3872 ft | 223 kts | 41° |
| 2026-04-23 14:45 | 45.47429 | 126.07621 | 3287 ft | 230 kts | 41° |
| 2026-04-23 14:45 | 45.48650 | 126.09057 | 2993 ft | 219 kts | 42° |
| 2026-04-23 14:45 | 45.49856 | 126.10448 | 2213 ft | 229 kts | 42° |
| 2026-04-23 14:46 | 45.51024 | 126.11785 | 2114 ft | 201 kts | 46° |
| 2026-04-23 14:46 | 45.51887 | 126.13122 | 2080 ft | 171 kts | 60° |
| 2026-04-23 14:46 | 45.52813 | 126.14139 | 1620 ft | 174 kts | 33° |
| 2026-04-23 14:46 | 45.53761 | 126.15093 | 1359 ft | 155 kts | 59° |
| 2026-04-23 14:47 | 45.54282 | 126.16417 | 1425 ft | 155 kts | 56° |
| 2026-04-23 14:47 | 45.55120 | 126.17486 | 1331 ft | 167 kts | 48° |
| 2026-04-23 14:47 | 45.55961 | 126.18661 | 1030 ft | 169 kts | 47° |
| 2026-04-23 14:47 | 45.56815 | 126.19772 | 783 ft | 158 kts | 43° |
| 2026-04-23 14:48 | 45.57617 | 126.20748 | 611 ft | 145 kts | 41° |
| 2026-04-23 14:48 | 45.58402 | 126.21699 | 957 ft | 153 kts | 41° |
| 2026-04-23 14:48 | 45.59223 | 126.22689 | 1432 ft | 171 kts | 45° |
| 2026-04-23 14:48 | 45.60140 | 126.23809 | 2094 ft | 178 kts | 47° |
| 2026-04-23 14:49 | 45.61087 | 126.24970 | 2763 ft | 180 kts | 45° |
| 2026-04-23 14:49 | 45.62032 | 126.26169 | 3060 ft | 179 kts | 45° |
| 2026-04-23 14:49 | 45.62966 | 126.27385 | 3475 ft | 196 kts | 45° |
| 2026-04-23 14:49 | 45.64035 | 126.28680 | 3305 ft | 199 kts | 39° |
| 2026-04-23 14:50 | 45.65110 | 126.29825 | 3175 ft | 188 kts | 39° |
| 2026-04-23 14:50 | 45.66128 | 126.30933 | 3025 ft | 182 kts | 41° |
| 2026-04-23 14:50 | 45.67134 | 126.32053 | 3013 ft | 183 kts | 41° |
| 2026-04-23 14:50 | 45.68129 | 126.33176 | 2999 ft | 181 kts | 41° |
| 2026-04-23 14:51 | 45.69108 | 126.34289 | 2996 ft | 179 kts | 41° |
| 2026-04-23 14:51 | 45.70091 | 126.35383 | 2998 ft | 181 kts | 34° |
| 2026-04-23 14:51 | 45.71312 | 126.35685 | 3022 ft | 184 kts | 342° |
| 2026-04-23 14:51 | 45.72251 | 126.34545 | 3016 ft | 182 kts | 289° |
| 2026-04-23 14:52 | 45.72225 | 126.32803 | 3031 ft | 179 kts | 239° |
| 2026-04-23 14:52 | 45.71690 | 126.31191 | 3024 ft | 181 kts | 247° |
| 2026-04-23 14:52 | 45.71328 | 126.29476 | 3010 ft | 182 kts | 266° |
| 2026-04-23 14:52 | 45.71304 | 126.27690 | 2988 ft | 180 kts | 256° |
| 2026-04-23 14:53 | 45.71052 | 126.25949 | 2998 ft | 179 kts | 257° |
| 2026-04-23 14:53 | 45.70844 | 126.24192 | 2991 ft | 180 kts | 258° |
| 2026-04-23 14:53 | 45.70652 | 126.22425 | 2987 ft | 180 kts | 258° |
| 2026-04-23 14:53 | 45.70466 | 126.20648 | 2985 ft | 181 kts | 258° |
| 2026-04-23 14:54 | 45.70283 | 126.18866 | 2967 ft | 181 kts | 258° |
| 2026-04-23 14:54 | 45.70102 | 126.17081 | 2967 ft | 182 kts | 259° |
| 2026-04-23 14:54 | 45.69911 | 126.15296 | 2966 ft | 181 kts | 253° |
| 2026-04-23 14:54 | 45.69275 | 126.13827 | 2980 ft | 172 kts | 219° |
| 2026-04-23 14:55 | 45.68407 | 126.12620 | 2967 ft | 175 kts | 221° |
| 2026-04-23 14:55 | 45.67524 | 126.11422 | 2971 ft | 176 kts | 220° |
| 2026-04-23 14:55 | 45.66629 | 126.10214 | 2966 ft | 177 kts | 220° |
| 2026-04-23 14:55 | 45.65737 | 126.09022 | 2970 ft | 178 kts | 220° |
| 2026-04-23 14:56 | 45.64819 | 126.07798 | 2965 ft | 179 kts | 219° |
| 2026-04-23 14:56 | 45.63909 | 126.06579 | 2958 ft | 179 kts | 219° |
| 2026-04-23 14:56 | 45.63018 | 126.05379 | 2960 ft | 178 kts | 220° |
| 2026-04-23 14:56 | 45.62044 | 126.04082 | 3012 ft | 205 kts | 220° |
| 2026-04-23 14:57 | 45.60966 | 126.02669 | 3003 ft | 214 kts | 220° |
| 2026-04-23 14:57 | 45.59863 | 126.01228 | 2985 ft | 215 kts | 219° |
| 2026-04-23 14:57 | 45.58761 | 125.99781 | 2985 ft | 215 kts | 220° |
| 2026-04-23 14:57 | 45.57662 | 125.98341 | 3001 ft | 214 kts | 220° |
| 2026-04-23 14:58 | 45.56569 | 125.96910 | 3006 ft | 212 kts | 220° |
| 2026-04-23 14:58 | 45.55488 | 125.95494 | 3002 ft | 210 kts | 220° |
| 2026-04-23 14:58 | 45.54412 | 125.94087 | 3006 ft | 210 kts | 220° |
| 2026-04-23 14:58 | 45.53338 | 125.92682 | 3007 ft | 209 kts | 220° |
| 2026-04-23 14:59 | 45.52259 | 125.91282 | 3007 ft | 209 kts | 217° |
| 2026-04-23 14:59 | 45.50964 | 125.90521 | 2962 ft | 201 kts | 174° |
| 2026-04-23 14:59 | 45.49771 | 125.91296 | 2969 ft | 187 kts | 129° |
| 2026-04-23 14:59 | 45.49087 | 125.92827 | 2974 ft | 180 kts | 121° |
| 2026-04-23 15:00 | 45.48592 | 125.94412 | 2966 ft | 170 kts | 111° |
| 2026-04-23 15:00 | 45.48193 | 125.95971 | 2966 ft | 169 kts | 111° |
| 2026-04-23 15:00 | 45.47782 | 125.97533 | 2949 ft | 168 kts | 111° |
| 2026-04-23 15:00 | 45.47355 | 125.99110 | 2957 ft | 168 kts | 112° |
| 2026-04-23 15:01 | 45.46931 | 126.00654 | 2957 ft | 167 kts | 113° |
| 2026-04-23 15:01 | 45.46511 | 126.02166 | 2956 ft | 166 kts | 113° |
| 2026-04-23 15:01 | 45.46081 | 126.03705 | 3012 ft | 166 kts | 113° |
| 2026-04-23 15:01 | 45.45699 | 126.05222 | 2987 ft | 159 kts | 102° |
| 2026-04-23 15:02 | 45.45862 | 126.06751 | 3009 ft | 162 kts | 66° |
| 2026-04-23 15:02 | 45.46655 | 126.07898 | 3057 ft | 162 kts | 42° |
| 2026-04-23 15:02 | 45.47526 | 126.08893 | 3008 ft | 158 kts | 43° |
| 2026-04-23 15:02 | 45.48376 | 126.09877 | 2903 ft | 158 kts | 43° |
| 2026-04-23 15:03 | 45.49221 | 126.10867 | 2700 ft | 156 kts | 44° |
| 2026-04-23 15:03 | 45.50053 | 126.11843 | 2487 ft | 153 kts | 45° |
| 2026-04-23 15:03 | 45.50868 | 126.12802 | 2278 ft | 151 kts | 45° |
| 2026-04-23 15:03 | 45.51672 | 126.13747 | 2085 ft | 149 kts | 46° |
| 2026-04-23 15:04 | 45.52458 | 126.14671 | 1874 ft | 145 kts | 47° |
| 2026-04-23 15:04 | 45.53230 | 126.15579 | 1679 ft | 143 kts | 48° |
| 2026-04-23 15:04 | 45.54001 | 126.16488 | 1480 ft | 143 kts | 46° |
| 2026-04-23 15:04 | 45.54771 | 126.17392 | 1275 ft | 143 kts | 45° |
| 2026-04-23 15:05 | 45.55536 | 126.18291 | 1073 ft | 144 kts | 44° |
| 2026-04-23 15:05 | 45.56308 | 126.19201 | 879 ft | 143 kts | 41° |
| 2026-04-23 15:05 | 45.57070 | 126.20095 | 695 ft | 141 kts | 40° |
| 2026-04-23 15:05 | 45.57823 | 126.20984 | 524 ft | 143 kts | 41° |
| 2026-04-23 15:06 | 45.58520 | 126.21806 | 495 ft | 110 kts | 39° |
| 2026-04-23 15:06 | 45.59001 | 126.22365 | 485 ft | 67 kts | 39° |
| 2026-04-23 15:06 | 45.59231 | 126.22593 | 480 ft | 24 kts | 16° |
| 2026-04-23 15:06 | 45.59388 | 126.22662 | 477 ft | 22 kts | 17° |
| 2026-04-23 15:07 | 45.59512 | 126.22717 | 479 ft | 17 kts | 17° |
| 2026-04-23 15:07 | 45.59603 | 126.22793 | 475 ft | 15 kts | 40° |
| 2026-04-23 15:07 | 45.59682 | 126.22885 | 476 ft | 14 kts | 39° |
| 2026-04-23 15:07 | 45.59756 | 126.22973 | 478 ft | 14 kts | 40° |
| 2026-04-23 15:08 | 45.59835 | 126.23065 | 474 ft | 16 kts | 39° |
| 2026-04-23 15:08 | 45.59933 | 126.23180 | 472 ft | 20 kts | 39° |
| 2026-04-23 15:08 | 45.60053 | 126.23321 | 469 ft | 24 kts | 39° |
| 2026-04-23 15:09 | 45.60277 | 126.23547 | 471 ft | 14 kts | 332° |
| 2026-04-23 15:09 | 45.60347 | 126.23438 | 471 ft | 16 kts | 310° |
| 2026-04-23 15:09 | 45.60427 | 126.23302 | 468 ft | 20 kts | 310° |
| 2026-04-23 15:09 | 45.60526 | 126.23135 | 467 ft | 24 kts | 309° |
| 2026-04-23 15:10 | 45.60601 | 126.23007 | 466 ft | 27 kts | 310° |
| 2026-04-23 15:10 | 45.60751 | 126.22753 | 468 ft | 19 kts | 310° |
| 2026-04-23 15:10 | 45.60782 | 126.22701 | 467 ft | 3 kts | 310° |
| 2026-04-23 15:10 | 45.60802 | 126.22673 | 467 ft | 6 kts | 320° |
| 2026-04-23 15:11 | 45.60844 | 126.22690 | 467 ft | 9 kts | 39° |
| 2026-04-23 15:11 | 45.60903 | 126.22759 | 465 ft | 13 kts | 39° |
| 2026-04-23 15:11 | 45.60984 | 126.22855 | 466 ft | 17 kts | 39° |
| 2026-04-23 15:11 | 45.61085 | 126.22976 | 466 ft | 21 kts | 39° |
| 2026-04-23 15:12 | 45.61206 | 126.23114 | 464 ft | 23 kts | 37° |
| 2026-04-23 15:12 | 45.61333 | 126.23260 | 465 ft | 22 kts | 39° |
| 2026-04-23 15:12 | 45.61446 | 126.23393 | 465 ft | 19 kts | 39° |
| 2026-04-23 15:12 | 45.61520 | 126.23480 | 461 ft | 10 kts | 40° |
| 2026-04-23 15:13 | 45.61577 | 126.23542 | 461 ft | 10 kts | 25° |
| 2026-04-23 15:13 | 45.61621 | 126.23496 | 461 ft | 2 kts | 276° |
| 2026-04-23 15:13 | 45.61622 | 126.23478 | 464 ft | 2 kts | 274° |
| 2026-04-23 15:13 | 45.61622 | 126.23462 | 464 ft | 1 kts | 273° |
| 2026-04-23 15:14 | 45.61622 | 126.23460 | 464 ft | 0 kts | 273° |